Time;durP1;ratioP1;P1;durP2;ratioP2;P2;SDS_P1;SDS_P2;PMS_P1;PMS_P2;Temp;Humidity;BMP_temperature;BMP_pressure;BME280_temperature;BME280_humidity;BME280_pressure;Samples;Min_cycle;Max_cycle;Signal;HPM_P1;HPM_P2
2022/11/04 00:01:16;;;;;;;1.30;0.90;;;10.80;99.90;;;;;;5113449;28;20463;-74
2022/11/04 00:03:42;;;;;;;1.23;0.73;;;10.70;99.90;;;;;;5113621;28;20949;-74
2022/11/04 00:06:08;;;;;;;2.00;1.03;;;10.70;99.90;;;;;;5113338;28;20410;-74
2022/11/04 00:08:34;;;;;;;1.87;0.80;;;10.70;99.90;;;;;;5113587;28;20542;-74
2022/11/04 00:13:45;;;;;;;1.70;1.10;;;10.80;99.90;;;;;;5113526;28;20441;-74
2022/11/04 00:18:55;;;;;;;2.37;1.10;;;10.80;99.90;;;;;;5113542;28;20431;-75
2022/11/04 00:29:34;;;;;;;2.23;1.20;;;10.90;99.90;;;;;;5113304;28;20409;-75
2022/11/04 00:34:43;;;;;;;1.50;0.93;;;10.80;99.90;;;;;;5112111;28;20673;-75
2022/11/04 00:37:09;;;;;;;1.63;1.17;;;10.80;99.90;;;;;;5111879;28;20395;-75
2022/11/04 00:39:34;;;;;;;2.40;1.00;;;10.80;99.90;;;;;;5111864;28;20621;-75
2022/11/04 00:42:00;;;;;;;1.30;1.00;;;10.90;99.90;;;;;;5112978;28;20676;-75
2022/11/04 00:44:25;;;;;;;1.63;1.20;;;10.90;99.90;;;;;;5112393;28;20165;-75
2022/11/04 00:46:51;;;;;;;1.77;1.23;;;10.90;99.90;;;;;;5112653;28;20196;-75
2022/11/04 00:49:16;;;;;;;1.50;1.00;;;10.90;99.90;;;;;;5112394;28;20288;-75
2022/11/04 00:51:42;;;;;;;1.60;1.37;;;10.90;99.90;;;;;;5112924;28;20163;-75
2022/11/04 00:54:08;;;;;;;2.90;1.13;;;11.00;99.90;;;;;;5112843;28;20659;-75
2022/11/04 00:56:37;;;;;;;1.70;1.00;;;11.00;99.90;;;;;;5112624;28;20196;-75
2022/11/04 00:59:02;;;;;;;1.77;1.20;;;11.00;99.90;;;;;;5112365;28;20414;-75
2022/11/04 01:01:28;;;;;;;2.10;1.67;;;11.00;99.90;;;;;;5112650;28;20399;-75
2022/11/04 01:03:54;;;;;;;2.20;1.50;;;11.00;99.90;;;;;;5112603;28;20211;-75
2022/11/04 01:06:24;;;;;;;1.30;0.80;;;11.00;99.90;;;;;;5112355;28;20244;-75
2022/11/04 01:08:58;;;;;;;1.20;1.03;;;11.10;99.90;;;;;;5112615;28;20485;-74
2022/11/04 01:11:24;;;;;;;1.97;1.20;;;11.10;99.90;;;;;;5112442;28;20406;-74
2022/11/04 01:13:50;;;;;;;1.50;1.27;;;11.10;99.90;;;;;;5112636;28;20405;-74
2022/11/04 01:16:16;;;;;;;1.87;1.07;;;11.10;99.90;;;;;;5112124;28;20409;-74
2022/11/04 01:18:42;;;;;;;1.40;0.97;;;11.00;99.90;;;;;;5112472;28;20756;-74
2022/11/04 01:21:11;;;;;;;2.40;1.40;;;10.90;99.90;;;;;;5112354;28;20271;-74
2022/11/04 01:23:37;;;;;;;2.33;1.07;;;10.80;99.90;;;;;;5112080;28;20707;-74
2022/11/04 01:26:08;;;;;;;1.80;1.13;;;10.80;99.90;;;;;;5111901;28;20485;-74
2022/11/04 01:28:34;;;;;;;3.00;1.53;;;10.70;99.90;;;;;;5112304;28;20207;-74
2022/11/04 01:31:04;;;;;;;4.00;1.40;;;10.60;99.90;;;;;;5112241;28;20805;-75
2022/11/04 01:33:29;;;;;;;3.00;1.20;;;10.60;99.90;;;;;;5112475;28;20215;-74
2022/11/04 01:35:59;;;;;;;2.60;1.00;;;10.50;99.90;;;;;;5111898;28;20446;-74
2022/11/04 01:38:24;;;;;;;2.17;0.90;;;10.40;99.90;;;;;;5112443;28;20165;-74
2022/11/04 01:40:50;;;;;;;2.13;1.00;;;10.40;99.90;;;;;;5112291;28;20952;-74
2022/11/04 01:43:18;;;;;;;1.37;0.90;;;10.30;99.90;;;;;;5112098;28;20195;-74
2022/11/04 01:45:48;;;;;;;1.90;1.03;;;10.30;99.90;;;;;;5114247;28;20547;-74
2022/11/04 01:48:21;;;;;;;1.67;1.00;;;10.20;99.90;;;;;;5116405;28;20414;-74
2022/11/04 01:50:48;;;;;;;1.57;0.80;;;10.20;99.90;;;;;;5116419;28;20422;-74
2022/11/04 01:53:31;;;;;;;1.97;1.17;;;10.10;99.90;;;;;;5116284;28;20411;-75
2022/11/04 01:56:00;;;;;;;1.57;0.93;;;10.10;99.90;;;;;;5115994;28;20406;-75
2022/11/04 01:58:29;;;;;;;1.43;0.80;;;10.00;99.90;;;;;;5116005;27;20975;-75
2022/11/04 02:00:55;;;;;;;1.67;0.90;;;10.00;99.90;;;;;;5095747;28;20427;-74
2022/11/04 02:03:35;;;;;;;1.50;0.90;;;9.90;99.90;;;;;;5095581;28;20500;-75
2022/11/04 02:06:01;;;;;;;1.63;0.87;;;9.90;99.90;;;;;;5095498;28;20169;-75
2022/11/04 02:08:28;;;;;;;2.80;1.10;;;9.90;99.90;;;;;;5095992;28;20935;-75
2022/11/04 02:11:03;;;;;;;1.23;0.73;;;9.80;99.90;;;;;;5098886;28;20430;-74
2022/11/04 02:13:34;;;;;;;2.70;1.10;;;9.70;99.90;;;;;;5115887;28;20401;-74
2022/11/04 02:16:20;;;;;;;2.23;0.93;;;9.70;99.90;;;;;;5115698;28;20391;-74
2022/11/04 02:18:56;;;;;;;1.70;1.03;;;9.70;99.90;;;;;;5115949;28;20398;-74
2022/11/04 02:21:39;;;;;;;2.53;0.83;;;9.70;99.90;;;;;;5115814;28;20434;-74
2022/11/04 02:24:05;;;;;;;2.90;1.10;;;9.70;99.90;;;;;;5115667;28;20961;-74
2022/11/04 02:26:39;;;;;;;1.20;0.73;;;9.60;99.90;;;;;;5114069;28;20399;-74
2022/11/04 02:29:35;;;;;;;2.90;1.00;;;9.60;99.90;;;;;;5115619;28;20546;-74
2022/11/04 02:32:24;;;;;;;1.10;0.70;;;9.50;99.90;;;;;;5115695;28;20935;-74
2022/11/04 02:34:59;;;;;;;2.07;1.17;;;9.50;99.90;;;;;;5115102;28;20434;-74
2022/11/04 02:37:32;;;;;;;3.93;1.27;;;9.50;99.90;;;;;;5115452;28;20390;-74
2022/11/04 02:40:30;;;;;;;3.03;1.27;;;9.50;99.90;;;;;;5115368;28;20426;-74
2022/11/04 02:43:02;;;;;;;1.20;0.70;;;9.40;99.90;;;;;;5061185;28;20470;-74
2022/11/04 02:45:41;;;;;;;1.20;0.70;;;9.40;99.90;;;;;;5115089;28;20403;-74
2022/11/04 02:48:20;;;;;;;6.80;2.17;;;9.30;99.90;;;;;;5115068;27;20528;-74
2022/11/04 02:50:58;;;;;;;2.60;1.10;;;9.30;99.90;;;;;;5113958;28;20785;-74
2022/11/04 02:53:36;;;;;;;3.03;1.67;;;9.30;99.90;;;;;;5115266;28;20406;-74
2022/11/04 02:56:04;;;;;;;4.80;0.90;;;9.20;99.90;;;;;;5114748;28;20884;-74
2022/11/04 02:58:35;;;;;;;3.47;1.10;;;9.20;99.90;;;;;;5114489;28;20434;-74
2022/11/04 03:01:02;;;;;;;5.83;1.30;;;9.10;99.90;;;;;;5114792;28;20816;-74
2022/11/04 03:03:35;;;;;;;2.50;1.13;;;9.10;99.90;;;;;;5114867;27;20939;-74
2022/11/04 03:06:03;;;;;;;3.93;1.23;;;9.10;99.90;;;;;;5114695;28;20402;-73
2022/11/04 03:08:37;;;;;;;4.00;1.10;;;9.10;99.90;;;;;;5114501;28;20414;-73
2022/11/04 03:11:11;;;;;;;1.80;0.80;;;9.10;99.90;;;;;;5114673;28;20426;-73
2022/11/04 03:13:46;;;;;;;4.73;1.17;;;9.20;99.90;;;;;;5114812;28;20398;-73
2022/11/04 03:16:27;;;;;;;3.00;0.83;;;9.20;99.90;;;;;;5113471;28;20476;-73
2022/11/04 03:19:10;;;;;;;3.90;1.27;;;9.30;99.90;;;;;;5114550;28;20422;-74
2022/11/04 03:21:40;;;;;;;8.30;1.10;;;9.20;99.90;;;;;;5114433;28;20429;-73
2022/11/04 03:24:06;;;;;;;2.90;1.17;;;9.20;99.90;;;;;;5114416;28;20991;-73
2022/11/04 03:26:45;;;;;;;2.40;0.90;;;9.20;99.90;;;;;;5114173;28;20402;-73
2022/11/04 03:29:18;;;;;;;2.57;1.23;;;9.10;99.90;;;;;;5114391;28;20218;-73
2022/11/04 03:31:57;;;;;;;2.80;1.10;;;9.00;99.90;;;;;;5114382;28;20911;-73
2022/11/04 03:34:22;;;;;;;5.10;1.00;;;9.00;99.90;;;;;;5114158;28;20919;-73
2022/11/04 03:36:48;;;;;;;3.83;1.33;;;8.90;99.90;;;;;;5114290;28;20399;-73
2022/11/04 03:39:13;;;;;;;1.00;0.60;;;8.90;99.90;;;;;;5114135;28;20267;-73
2022/11/04 03:41:48;;;;;;;2.00;0.80;;;8.90;99.90;;;;;;5113870;28;20181;-73
2022/11/04 03:44:13;;;;;;;3.43;1.23;;;8.80;99.90;;;;;;5112822;28;20264;-74
2022/11/04 03:46:39;;;;;;;1.90;1.17;;;8.70;99.90;;;;;;5113982;28;20796;-73
2022/11/04 03:49:08;;;;;;;1.67;1.00;;;8.70;99.90;;;;;;5112737;28;20642;-72
2022/11/04 03:51:33;;;;;;;2.93;1.00;;;8.60;99.90;;;;;;5114034;28;20478;-74
2022/11/04 03:53:59;;;;;;;1.37;0.80;;;8.60;99.90;;;;;;5113712;28;20497;-73
2022/11/04 03:56:43;;;;;;;2.50;1.53;;;8.60;99.90;;;;;;5113618;28;20233;-73
2022/11/04 03:59:30;;;;;;;1.57;1.00;;;8.50;99.90;;;;;;5113791;28;20761;-73
2022/11/04 04:02:03;;;;;;;1.83;0.90;;;8.40;99.90;;;;;;5113769;28;20459;-74
2022/11/04 04:04:34;;;;;;;2.50;1.07;;;8.40;99.90;;;;;;5113582;28;20968;-74
2022/11/04 04:07:08;;;;;;;5.70;1.23;;;8.30;99.90;;;;;;5113575;28;20415;-73
2022/11/04 04:09:43;;;;;;;11.20;1.47;;;8.30;99.90;;;;;;5112552;28;20422;-73
2022/11/04 04:12:19;;;;;;;8.37;1.23;;;8.20;99.90;;;;;;5113668;28;20398;-73
2022/11/04 04:14:55;;;;;;;3.93;1.37;;;8.10;99.90;;;;;;5113296;28;20455;-73
2022/11/04 04:17:35;;;;;;;1.60;0.90;;;8.10;99.90;;;;;;5113351;28;20406;-73
2022/11/04 04:20:04;;;;;;;5.50;1.67;;;8.10;99.90;;;;;;5113392;28;20449;-72
2022/11/04 04:22:37;;;;;;;1.40;0.70;;;8.10;99.90;;;;;;5111841;28;20990;-72
2022/11/04 04:27:52;;;;;;;3.10;1.13;;;8.10;99.90;;;;;;5113549;28;20750;-72
2022/11/04 04:30:17;;;;;;;8.00;1.50;;;8.00;99.90;;;;;;5112868;28;20431;-73
2022/11/04 04:32:47;;;;;;;2.13;1.20;;;8.00;99.90;;;;;;5113182;28;20433;-74
2022/11/04 04:46:22;;;;;;;1.20;0.70;;;7.80;99.90;;;;;;5100621;28;20417;-74
2022/11/04 04:48:48;;;;;;;5.63;1.33;;;7.80;99.90;;;;;;5111627;28;20406;-74
2022/11/04 04:51:14;;;;;;;8.30;1.87;;;7.70;99.90;;;;;;5112921;28;20420;-74
2022/11/04 04:53:39;;;;;;;1.40;0.93;;;7.70;99.90;;;;;;5112926;28;20157;-73
2022/11/04 04:56:05;;;;;;;1.40;1.10;;;7.80;99.90;;;;;;5112515;28;20406;-73
2022/11/04 04:58:30;;;;;;;8.63;1.87;;;7.70;99.90;;;;;;5112621;28;20167;-73
2022/11/04 05:00:56;;;;;;;6.37;1.80;;;7.70;99.90;;;;;;5112738;28;20200;-73
2022/11/04 05:03:23;;;;;;;6.33;1.10;;;7.70;99.90;;;;;;5112519;28;20193;-73
2022/11/04 05:05:49;;;;;;;2.50;2.00;;;7.70;99.90;;;;;;5112352;28;20223;-73
2022/11/04 05:08:14;;;;;;;4.70;1.47;;;7.70;99.90;;;;;;5112605;28;20536;-73
2022/11/04 05:10:40;;;;;;;4.53;1.87;;;7.70;99.90;;;;;;5112300;28;20180;-73
2022/11/04 05:15:49;;;;;;;3.30;2.00;;;7.70;99.90;;;;;;5112269;28;20171;-74
2022/11/04 05:18:16;;;;;;;2.33;1.13;;;7.70;99.90;;;;;;5112531;28;20410;-74
2022/11/04 05:20:41;;;;;;;6.33;1.63;;;7.70;99.90;;;;;;5112100;28;20208;-73
2022/11/04 05:23:10;;;;;;;5.17;1.47;;;7.70;99.90;;;;;;5110870;28;20856;-74
2022/11/04 05:25:39;;;;;;;4.23;1.20;;;7.70;99.90;;;;;;5112214;28;20160;-73
2022/11/04 05:28:06;;;;;;;13.07;2.17;;;7.70;99.90;;;;;;5112436;28;20398;-73
2022/11/04 05:30:32;;;;;;;3.33;1.80;;;7.70;99.90;;;;;;5112466;28;20439;-73
2022/11/04 05:32:57;;;;;;;3.83;1.30;;;7.70;99.90;;;;;;5112413;28;20435;-73
2022/11/04 05:35:23;;;;;;;3.50;1.30;;;7.80;99.90;;;;;;5111981;28;20454;-72
2022/11/04 05:37:48;;;;;;;1.90;1.53;;;7.80;99.90;;;;;;5112310;28;20169;-73
2022/11/04 05:40:14;;;;;;;2.63;1.37;;;7.80;99.90;;;;;;5112242;28;20189;-73
2022/11/04 05:42:40;;;;;;;2.80;1.20;;;7.80;99.90;;;;;;5112233;28;20188;-73
2022/11/04 05:45:06;;;;;;;8.80;1.90;;;7.80;99.90;;;;;;5111963;28;20201;-73
2022/11/04 05:47:31;;;;;;;6.50;1.03;;;7.80;99.90;;;;;;5112068;28;20603;-73
2022/11/04 05:49:57;;;;;;;2.17;1.10;;;7.80;99.90;;;;;;5111944;28;20509;-73
2022/11/04 05:52:22;;;;;;;3.20;1.50;;;7.70;99.90;;;;;;5112213;28;20172;-72
2022/11/04 05:54:48;;;;;;;2.63;1.20;;;7.70;99.90;;;;;;5111885;28;20691;-73
2022/11/04 05:57:13;;;;;;;2.80;1.47;;;7.50;99.90;;;;;;5112193;28;20192;-74
2022/11/04 05:59:39;;;;;;;7.83;1.37;;;7.40;99.90;;;;;;5112055;28;20201;-74
2022/11/04 06:02:04;;;;;;;3.73;1.53;;;7.30;99.90;;;;;;5111828;28;20184;-73
2022/11/04 06:04:30;;;;;;;2.37;1.20;;;7.30;99.90;;;;;;5110670;28;20161;-73
2022/11/04 06:06:56;;;;;;;6.20;1.80;;;7.20;99.90;;;;;;5112128;28;20176;-73
2022/11/04 06:09:37;;;;;;;4.63;1.50;;;7.20;99.90;;;;;;5112013;28;20422;-73
2022/11/04 06:12:05;;;;;;;2.90;2.03;;;7.20;99.90;;;;;;5111854;28;20198;-72
2022/11/04 06:14:30;;;;;;;1.70;1.30;;;7.20;99.90;;;;;;5111702;28;20418;-73
2022/11/04 06:16:56;;;;;;;3.60;1.33;;;7.20;99.90;;;;;;5111953;28;20895;-74
2022/11/04 06:19:21;;;;;;;3.53;1.77;;;7.10;99.90;;;;;;5110671;28;20184;-72
2022/11/04 06:21:47;;;;;;;4.87;2.30;;;7.10;99.90;;;;;;5111871;28;20168;-73
2022/11/04 06:24:12;;;;;;;5.53;1.93;;;7.20;99.90;;;;;;5111381;28;20201;-73
2022/11/04 06:26:38;;;;;;;7.60;1.90;;;7.10;99.90;;;;;;5110412;28;20165;-72
2022/11/04 06:29:04;;;;;;;2.50;1.60;;;7.20;99.90;;;;;;5111897;28;20207;-73
2022/11/04 06:31:29;;;;;;;2.40;1.53;;;7.30;99.90;;;;;;5111925;28;20448;-72
2022/11/04 06:33:55;;;;;;;3.97;1.80;;;7.20;99.90;;;;;;5114020;28;20164;-72
2022/11/04 06:36:20;;;;;;;2.60;2.40;;;7.20;99.90;;;;;;5113811;28;20218;-72
2022/11/04 06:38:46;;;;;;;3.47;1.83;;;7.20;99.90;;;;;;5115414;28;20259;-72
2022/11/04 06:41:14;;;;;;;10.13;5.27;;;7.20;99.90;;;;;;5115386;28;20684;-72
2022/11/04 06:43:40;;;;;;;3.80;2.33;;;7.30;99.90;;;;;;5115301;28;20193;-74
2022/11/04 06:46:05;;;;;;;5.43;2.17;;;7.40;99.90;;;;;;5114901;28;20448;-73
2022/11/04 06:48:31;;;;;;;5.70;2.10;;;7.40;99.90;;;;;;5115227;28;20165;-74
2022/11/04 06:50:58;;;;;;;4.27;2.63;;;7.40;99.90;;;;;;5115065;28;20189;-73
2022/11/04 06:53:24;;;;;;;2.57;2.17;;;7.40;99.90;;;;;;5113946;28;20406;-74
2022/11/04 06:55:51;;;;;;;2.27;2.07;;;7.30;99.90;;;;;;5114670;28;20414;-73
2022/11/04 06:58:17;;;;;;;3.40;2.20;;;7.40;99.90;;;;;;5114964;28;20404;-73
2022/11/04 07:00:43;;;;;;;2.43;1.63;;;7.40;99.90;;;;;;5115061;27;20428;-73
2022/11/04 07:03:09;;;;;;;4.40;2.50;;;7.40;99.90;;;;;;5113680;28;20730;-74
2022/11/04 07:05:34;;;;;;;3.30;2.03;;;7.50;99.90;;;;;;5114389;28;20557;-74
2022/11/04 07:08:00;;;;;;;2.27;1.60;;;7.60;99.90;;;;;;5114970;28;20460;-74
2022/11/04 07:10:25;;;;;;;3.67;2.10;;;7.70;99.90;;;;;;5114810;28;20238;-73
2022/11/04 07:12:53;;;;;;;3.63;1.60;;;7.80;99.90;;;;;;5114736;28;20169;-73
2022/11/04 07:15:18;;;;;;;2.83;1.70;;;7.80;99.90;;;;;;5114476;28;20187;-73
2022/11/04 07:17:44;;;;;;;5.60;2.30;;;7.90;99.90;;;;;;5114265;28;20418;-73
2022/11/04 07:20:12;;;;;;;3.83;2.20;;;8.00;99.90;;;;;;5114651;28;20404;-74
2022/11/04 07:22:37;;;;;;;3.00;2.10;;;8.10;99.90;;;;;;5114424;28;20185;-74
2022/11/04 07:25:03;;;;;;;2.53;2.10;;;8.20;99.90;;;;;;5114083;28;20509;-73
2022/11/04 07:27:29;;;;;;;4.37;1.77;;;8.20;99.90;;;;;;5114599;28;20199;-73
2022/11/04 07:29:54;;;;;;;3.60;1.97;;;8.20;99.90;;;;;;5114083;28;20902;-73
2022/11/04 07:32:20;;;;;;;2.03;1.80;;;8.30;99.90;;;;;;5114383;28;20270;-72
2022/11/04 07:34:45;;;;;;;5.47;2.80;;;8.40;99.90;;;;;;5114054;28;20164;-72
2022/11/04 07:37:11;;;;;;;3.77;2.30;;;8.40;99.90;;;;;;5114294;28;20687;-73
2022/11/04 07:39:36;;;;;;;3.00;1.83;;;8.40;99.90;;;;;;5114202;28;20188;-72
2022/11/04 07:42:02;;;;;;;4.50;2.70;;;8.50;99.90;;;;;;5113807;28;20184;-72
2022/11/04 07:44:27;;;;;;;14.40;2.80;;;8.60;99.90;;;;;;5113394;28;20547;-72
2022/11/04 07:46:53;;;;;;;3.47;1.70;;;8.60;99.90;;;;;;5112824;28;20190;-72
2022/11/04 07:49:18;;;;;;;2.23;1.97;;;8.60;99.90;;;;;;5113935;28;20192;-74
2022/11/04 07:51:44;;;;;;;2.73;2.03;;;8.70;99.90;;;;;;5113982;28;20153;-72
2022/11/04 07:54:09;;;;;;;4.20;2.90;;;8.70;99.90;;;;;;5113647;28;20192;-72
2022/11/04 07:56:35;;;;;;;3.07;2.20;;;8.80;99.90;;;;;;5112409;28;20196;-72
2022/11/04 07:59:00;;;;;;;4.17;2.70;;;8.70;99.90;;;;;;5113785;28;20588;-72
2022/11/04 08:01:26;;;;;;;7.73;2.40;;;8.80;99.90;;;;;;5113672;28;20269;-72
2022/11/04 08:03:51;;;;;;;4.27;2.17;;;8.90;99.90;;;;;;5113573;28;20197;-72
2022/11/04 08:06:19;;;;;;;7.27;3.17;;;8.90;99.90;;;;;;5113318;28;20533;-72
2022/11/04 08:08:46;;;;;;;7.03;2.80;;;9.00;99.90;;;;;;5113657;28;20534;-73
2022/11/04 08:11:15;;;;;;;5.87;2.17;;;9.10;99.90;;;;;;5113041;28;20434;-73
2022/11/04 08:13:41;;;;;;;3.00;2.07;;;9.20;99.90;;;;;;5113376;28;20912;-73
2022/11/04 08:16:12;;;;;;;3.63;2.37;;;9.40;99.90;;;;;;5113217;28;20394;-73
2022/11/04 08:18:39;;;;;;;7.50;3.77;;;9.60;99.90;;;;;;5113569;28;20482;-73
2022/11/04 08:21:05;;;;;;;5.53;3.23;;;9.70;99.90;;;;;;5113115;28;20439;-73
2022/11/04 08:23:31;;;;;;;4.70;2.60;;;9.80;99.90;;;;;;5113223;28;20469;-76
2022/11/04 08:25:58;;;;;;;3.30;2.90;;;9.90;99.90;;;;;;5113038;28;20391;-72
2022/11/04 08:28:24;;;;;;;3.83;2.60;;;10.10;99.90;;;;;;5112044;28;20776;-73
2022/11/04 08:30:58;;;;;;;2.33;2.00;;;10.20;99.90;;;;;;5113225;28;20415;-72
2022/11/04 08:33:26;;;;;;;4.80;2.23;;;10.40;99.90;;;;;;5112292;28;20508;-72
2022/11/04 08:35:53;;;;;;;5.10;2.70;;;10.40;99.90;;;;;;5112767;28;20402;-72
2022/11/04 08:38:19;;;;;;;7.67;2.67;;;10.40;99.90;;;;;;5113227;28;20437;-72
2022/11/04 08:40:45;;;;;;;4.70;2.97;;;10.50;99.90;;;;;;5113059;28;20446;-72
2022/11/04 08:43:11;;;;;;;2.70;2.20;;;10.60;99.90;;;;;;5112958;28;20840;-72
2022/11/04 08:45:44;;;;;;;5.70;2.43;;;10.70;99.90;;;;;;5111348;28;20980;-72
2022/11/04 08:48:12;;;;;;;3.90;2.70;;;10.80;99.90;;;;;;5112955;28;20165;-73
2022/11/04 08:50:38;;;;;;;4.87;2.63;;;10.80;99.90;;;;;;5112798;28;20517;-72
2022/11/04 08:53:04;;;;;;;6.53;3.17;;;11.20;99.90;;;;;;5112913;28;20497;-73
2022/11/04 08:55:31;;;;;;;8.87;2.60;;;11.90;99.90;;;;;;5110809;28;20177;-73
2022/11/04 08:57:57;;;;;;;3.97;2.20;;;12.80;99.90;;;;;;5112494;28;20429;-73
2022/11/04 09:00:23;;;;;;;3.60;2.00;;;13.10;99.90;;;;;;5112704;28;20434;-73
2022/11/04 09:02:49;;;;;;;2.97;2.10;;;13.40;99.90;;;;;;5112675;28;20450;-73
2022/11/04 09:05:15;;;;;;;7.90;2.40;;;13.40;99.90;;;;;;5110762;28;20485;-73
2022/11/04 09:07:41;;;;;;;2.57;1.97;;;13.20;99.90;;;;;;5112617;28;20642;-73
2022/11/04 09:10:08;;;;;;;11.50;2.80;;;13.10;99.90;;;;;;5112240;28;20240;-73
2022/11/04 09:12:34;;;;;;;4.90;2.70;;;13.10;99.90;;;;;;5112669;28;20406;-72
2022/11/04 09:15:00;;;;;;;2.63;2.30;;;13.00;99.90;;;;;;5112255;28;20421;-72
2022/11/04 09:17:26;;;;;;;6.73;2.30;;;13.20;99.90;;;;;;5112365;28;20414;-72
2022/11/04 09:19:51;;;;;;;2.57;1.90;;;13.50;99.90;;;;;;5111263;28;20189;-72
2022/11/04 09:22:17;;;;;;;5.20;2.60;;;13.60;99.90;;;;;;5112125;28;20200;-72
2022/11/04 09:24:43;;;;;;;2.13;1.90;;;13.50;99.90;;;;;;5111834;28;20265;-72
2022/11/04 09:27:09;;;;;;;3.37;2.13;;;13.90;99.90;;;;;;5112294;28;20161;-72
2022/11/04 09:29:35;;;;;;;2.43;1.80;;;14.40;99.90;;;;;;5110660;28;20500;-73
2022/11/04 09:32:03;;;;;;;5.37;2.17;;;15.40;99.90;;;;;;5112128;28;20158;-73
2022/11/04 09:34:29;;;;;;;4.40;2.23;;;16.70;99.90;;;;;;5111548;28;20479;-73
2022/11/04 09:36:55;;;;;;;3.33;2.03;;;17.90;99.90;;;;;;5112035;28;20406;-73
2022/11/04 09:39:22;;;;;;;3.87;1.90;;;19.30;99.90;;;;;;5111997;28;20226;-73
2022/11/04 09:42:00;;;;;;;4.20;2.03;;;20.60;99.90;;;;;;5112059;28;20468;-73
2022/11/04 09:44:48;;;;;;;2.70;1.93;;;21.00;99.90;;;;;;5111893;28;20494;-73
2022/11/04 09:47:15;;;;;;;3.10;2.17;;;21.20;99.90;;;;;;5111772;28;21019;-73
2022/11/04 09:49:45;;;;;;;4.17;2.17;;;21.60;99.20;;;;;;5111950;28;20422;-73
2022/11/04 09:52:22;;;;;;;3.97;2.30;;;22.20;98.80;;;;;;5111860;28;20766;-74
2022/11/04 09:55:03;;;;;;;6.37;2.63;;;22.70;91.30;;;;;;5111791;28;20419;-74
2022/11/04 09:57:28;;;;;;;3.80;1.80;;;23.20;85.20;;;;;;5111747;28;20907;-74
2022/11/04 09:59:54;;;;;;;5.93;2.80;;;24.00;76.30;;;;;;5111919;28;20418;-74
2022/11/04 10:02:50;;;;;;;4.50;3.03;;;23.90;78.90;;;;;;5111688;28;20521;-74
2022/11/04 10:05:37;;;;;;;5.20;2.30;;;24.10;71.50;;;;;;5111589;28;20185;-74
2022/11/04 10:08:40;;;;;;;3.60;2.30;;;25.80;72.20;;;;;;5114470;28;20485;-74
2022/11/04 10:11:26;;;;;;;4.13;2.47;;;27.50;62.40;;;;;;5115460;28;20507;-75
2022/11/04 10:14:07;;;;;;;3.77;2.67;;;28.20;57.10;;;;;;5114334;28;20514;-75
2022/11/04 10:16:33;;;;;;;4.80;2.10;;;27.70;53.30;;;;;;5115490;28;20428;-74
2022/11/04 10:19:17;;;;;;;2.00;1.80;;;26.30;53.30;;;;;;5115498;28;20864;-74
2022/11/04 10:21:57;;;;;;;3.47;2.10;;;24.90;55.10;;;;;;5115292;28;20203;-74
2022/11/04 10:24:40;;;;;;;6.10;3.13;;;24.10;57.30;;;;;;5115133;28;20580;-75
2022/11/04 10:27:18;;;;;;;7.17;3.87;;;24.20;58.70;;;;;;5113883;28;20403;-74
2022/11/04 10:29:47;;;;;;;7.90;2.50;;;24.90;58.90;;;;;;5115314;28;20468;-75
2022/11/04 10:32:25;;;;;;;4.47;2.43;;;24.90;60.60;;;;;;5115203;28;20486;-74
2022/11/04 10:35:04;;;;;;;2.50;1.70;;;23.90;59.30;;;;;;5114844;28;20506;-74
2022/11/04 10:37:30;;;;;;;3.80;1.90;;;23.30;63.50;;;;;;5115282;28;20421;-73
2022/11/04 10:40:25;;;;;;;3.53;1.77;;;22.60;74.20;;;;;;5115250;28;20414;-73
2022/11/04 10:42:52;;;;;;;2.50;1.80;;;21.60;91.90;;;;;;5115124;28;20197;-73
2022/11/04 10:45:21;;;;;;;4.77;2.00;;;20.50;99.90;;;;;;5114512;28;20786;-73
2022/11/04 10:48:05;;;;;;;2.87;2.33;;;19.50;99.90;;;;;;5114820;28;20502;-73
2022/11/04 10:50:46;;;;;;;4.70;2.47;;;18.30;99.90;;;;;;5115073;28;20509;-73
2022/11/04 10:53:19;;;;;;;2.13;0.77;;;17.60;99.90;;;;;;5114761;28;20461;-73
2022/11/04 10:56:06;;;;;;;2.70;1.10;;;17.10;99.90;;;;;;5114581;28;20437;-73
2022/11/04 10:58:39;;;;;;;2.07;1.13;;;16.80;99.90;;;;;;5114653;28;20476;-73
2022/11/04 11:01:33;;;;;;;2.00;1.00;;;16.50;99.90;;;;;;5113372;28;20462;-73
2022/11/04 11:04:00;;;;;;;2.33;1.30;;;16.40;99.90;;;;;;5114502;28;20503;-73
2022/11/04 11:06:34;;;;;;;2.80;1.23;;;16.60;99.90;;;;;;5113074;28;20791;-73
2022/11/04 11:09:29;;;;;;;1.30;0.87;;;16.80;99.90;;;;;;5114777;28;20390;-73
2022/11/04 11:12:00;;;;;;;2.13;1.23;;;17.20;99.90;;;;;;5114229;28;20870;-73
2022/11/04 11:14:28;;;;;;;4.30;0.90;;;17.60;99.90;;;;;;5114257;28;20387;-73
2022/11/04 11:16:55;;;;;;;1.47;0.80;;;17.80;99.90;;;;;;5114476;28;20390;-73
2022/11/04 11:19:26;;;;;;;2.40;1.17;;;17.70;99.90;;;;;;5113709;28;20426;-73
2022/11/04 11:21:56;;;;;;;5.83;2.57;;;17.80;99.90;;;;;;5112955;28;20483;-73
2022/11/04 11:24:25;;;;;;;3.37;1.13;;;17.70;99.90;;;;;;5113830;28;20580;-73
2022/11/04 11:26:55;;;;;;;1.60;1.13;;;18.00;99.90;;;;;;5114318;28;20485;-73
2022/11/04 11:29:28;;;;;;;1.30;0.80;;;18.30;99.90;;;;;;5112910;28;20430;-73
2022/11/04 11:31:55;;;;;;;2.83;0.87;;;18.80;99.90;;;;;;5114212;28;20460;-73
2022/11/04 11:34:35;;;;;;;2.00;1.10;;;18.90;99.90;;;;;;5113669;27;20414;-73
2022/11/04 11:37:03;;;;;;;1.47;0.90;;;19.20;99.90;;;;;;5114127;28;20857;-73
2022/11/04 11:39:34;;;;;;;1.20;0.93;;;19.30;99.90;;;;;;5112691;28;20427;-73
2022/11/04 11:42:05;;;;;;;1.37;0.70;;;19.50;99.90;;;;;;5114035;28;20402;-73
2022/11/04 11:44:39;;;;;;;3.20;0.90;;;19.60;99.90;;;;;;5113627;28;20928;-74
2022/11/04 11:47:06;;;;;;;2.90;1.40;;;19.90;99.90;;;;;;5113637;28;20399;-73
2022/11/04 11:49:35;;;;;;;1.60;1.10;;;20.60;99.90;;;;;;5113773;28;20926;-74
2022/11/04 11:52:28;;;;;;;2.00;1.00;;;20.90;99.90;;;;;;5112510;28;20430;-73
2022/11/04 11:55:09;;;;;;;2.03;1.00;;;21.10;98.30;;;;;;5113184;28;20391;-73
2022/11/04 11:57:59;;;;;;;2.30;1.27;;;21.70;95.00;;;;;;5113754;28;20387;-73
2022/11/04 12:00:31;;;;;;;2.17;0.90;;;22.20;91.30;;;;;;5113373;28;20522;-73
2022/11/04 12:03:31;;;;;;;2.47;1.40;;;22.70;87.40;;;;;;5113542;28;20465;-72
2022/11/04 12:06:13;;;;;;;1.50;1.00;;;22.50;84.70;;;;;;5113316;28;20395;-73
2022/11/04 12:09:24;;;;;;;4.13;1.07;;;22.90;81.10;;;;;;5113331;28;20466;-73
2022/11/04 12:11:54;;;;;;;1.83;1.20;;;22.70;82.80;;;;;;5062706;28;20526;-73
2022/11/04 12:14:25;;;;;;;6.40;5.73;;;22.50;82.50;;;;;;5092637;28;20798;-73
2022/11/04 12:17:10;;;;;;;2.13;1.60;;;22.20;83.50;;;;;;5092986;28;20803;-73
2022/11/04 12:19:53;;;;;;;4.53;2.20;;;21.80;82.00;;;;;;5092871;28;20466;-72
2022/11/04 12:22:28;;;;;;;2.43;1.37;;;21.60;81.60;;;;;;5093933;28;20938;-73
2022/11/04 12:25:21;;;;;;;2.23;0.80;;;21.20;84.30;;;;;;5112831;28;20414;-73
2022/11/04 12:28:21;;;;;;;4.13;0.90;;;21.00;85.10;;;;;;5113148;28;20414;-74
2022/11/04 12:31:07;;;;;;;4.80;1.30;;;20.90;86.70;;;;;;5109641;28;20438;-74
2022/11/04 12:33:40;;;;;;;1.30;1.17;;;20.60;89.60;;;;;;5102347;28;20445;-74
2022/11/04 12:36:33;;;;;;;7.87;1.30;;;20.60;91.30;;;;;;5112510;28;20419;-74
2022/11/04 12:39:36;;;;;;;4.23;1.40;;;20.20;91.70;;;;;;5112662;28;20418;-74
2022/11/04 12:42:08;;;;;;;3.10;1.93;;;20.00;94.30;;;;;;5112779;28;20402;-74
2022/11/04 12:44:43;;;;;;;3.93;1.13;;;19.50;96.40;;;;;;5112473;28;20403;-73
2022/11/04 12:47:39;;;;;;;5.60;2.73;;;19.40;98.90;;;;;;5111230;28;20448;-73
2022/11/04 12:50:07;;;;;;;1.83;1.23;;;19.20;99.90;;;;;;5112438;28;20430;-73
2022/11/04 12:53:01;;;;;;;1.70;1.10;;;18.90;99.90;;;;;;5112607;28;20424;-73
2022/11/04 12:55:43;;;;;;;1.53;1.10;;;18.70;99.90;;;;;;5111026;28;20402;-73
2022/11/04 12:58:42;;;;;;;2.20;1.00;;;18.70;99.90;;;;;;5112541;28;20440;-72
2022/11/04 13:01:35;;;;;;;1.30;1.00;;;18.70;99.90;;;;;;5092187;28;20415;-74
2022/11/04 13:04:15;;;;;;;1.20;0.80;;;18.50;99.90;;;;;;5092238;28;20455;-75
2022/11/04 13:07:02;;;;;;;3.27;1.00;;;18.40;99.90;;;;;;5092536;28;20399;-74
2022/11/04 13:09:44;;;;;;;2.07;0.90;;;18.40;99.90;;;;;;5092084;28;20423;-74
2022/11/04 13:12:14;;;;;;;2.20;1.00;;;18.30;99.90;;;;;;5108018;28;20911;-74
2022/11/04 13:14:50;;;;;;;2.23;1.30;;;18.30;99.90;;;;;;5110773;28;20775;-74
2022/11/04 13:17:22;;;;;;;1.50;1.00;;;18.20;99.90;;;;;;5111046;28;20410;-74
2022/11/04 13:19:54;;;;;;;2.93;1.13;;;18.00;99.90;;;;;;5112303;28;20915;-74
2022/11/04 13:22:30;;;;;;;4.33;1.77;;;17.80;99.90;;;;;;5112083;28;20428;-74
2022/11/04 13:25:02;;;;;;;1.70;1.40;;;17.60;99.90;;;;;;5112041;28;20816;-74
2022/11/04 13:27:36;;;;;;;2.80;1.17;;;17.40;99.90;;;;;;5112237;28;20438;-74
2022/11/04 13:30:05;;;;;;;5.37;1.30;;;17.20;99.90;;;;;;5112332;28;20430;-74
2022/11/04 13:32:38;;;;;;;9.13;1.83;;;17.00;99.90;;;;;;5112509;28;20406;-73
2022/11/04 13:35:30;;;;;;;3.00;1.43;;;16.60;99.90;;;;;;5111917;28;20431;-74
2022/11/04 13:38:11;;;;;;;5.63;1.60;;;16.30;99.90;;;;;;5112423;28;20407;-74
2022/11/04 13:40:51;;;;;;;2.40;1.40;;;16.10;99.90;;;;;;5112539;28;20422;-74
2022/11/04 13:43:39;;;;;;;3.50;1.57;;;16.00;99.90;;;;;;5116240;28;20458;-74
2022/11/04 13:46:07;;;;;;;1.70;1.00;;;16.00;99.90;;;;;;5115954;28;20497;-73